createdAt,value
2022-09-22T00:02:27.810Z,7.04
2022-09-22T00:05:29.875Z,6.95
2022-09-22T00:08:33.896Z,6.91
2022-09-22T00:11:37.006Z,6.97
2022-09-22T00:14:40.666Z,7.00
2022-09-22T00:17:42.730Z,6.92
2022-09-22T00:20:44.502Z,6.82
2022-09-22T00:23:49.872Z,6.81
2022-09-22T00:26:55.341Z,6.87
2022-09-22T00:30:00.514Z,6.93
2022-09-22T00:33:02.086Z,6.97
2022-09-22T00:36:04.239Z,7.00
2022-09-22T00:39:07.689Z,7.00
2022-09-22T00:42:09.591Z,6.99
2022-09-22T00:45:12.057Z,6.95
2022-09-22T00:48:14.443Z,6.95
2022-09-22T00:51:17.919Z,6.91
2022-09-22T00:54:20.828Z,6.85
2022-09-22T00:57:24.423Z,6.84
2022-09-22T01:00:28.984Z,6.84
2022-09-22T01:03:31.258Z,6.78
2022-09-22T01:06:33.463Z,6.77
2022-09-22T01:09:39.431Z,6.71
2022-09-22T01:12:45.399Z,6.65
2022-09-22T01:15:52.856Z,6.69
2022-09-22T01:19:05.347Z,6.69
2022-09-22T01:22:16.162Z,6.65
2022-09-22T01:25:37.160Z,6.59
2022-09-22T01:28:46.065Z,6.51
2022-09-22T01:31:53.101Z,6.52
2022-09-22T01:34:56.957Z,6.52
2022-09-22T01:38:03.560Z,6.47
2022-09-22T01:41:08.198Z,6.44
2022-09-22T01:44:13.625Z,6.39
2022-09-22T01:47:19.666Z,6.35
2022-09-22T01:50:24.467Z,6.36
2022-09-22T01:53:30.540Z,6.37
2022-09-22T01:56:34.414Z,6.30
2022-09-22T01:59:38.599Z,6.32
2022-09-22T02:02:45.283Z,6.36
2022-09-22T02:05:50.314Z,6.41
2022-09-22T02:08:55.074Z,6.45
2022-09-22T02:11:57.504Z,6.50
2022-09-22T02:14:59.239Z,6.46
2022-09-22T02:18:06.392Z,6.36
2022-09-22T02:21:08.008Z,6.28
2022-09-22T02:24:24.439Z,6.29
2022-09-22T02:27:27.613Z,6.41
2022-09-22T02:30:31.990Z,6.50
2022-09-22T02:33:38.283Z,6.48
2022-09-22T02:36:45.379Z,6.44
2022-09-22T02:39:51.329Z,6.36
2022-09-22T02:42:56.500Z,6.30
2022-09-22T02:46:00.231Z,6.22
2022-09-22T02:49:11.947Z,6.15
2022-09-22T02:52:14.507Z,6.12
2022-09-22T02:55:16.261Z,6.09
2022-09-22T02:58:18.134Z,6.09
2022-09-22T03:01:19.859Z,6.07
2022-09-22T03:04:22.914Z,6.07
2022-09-22T03:07:24.525Z,6.08
2022-09-22T03:10:25.971Z,6.05
2022-09-22T03:13:27.616Z,6.03
2022-09-22T03:16:29.142Z,6.00
2022-09-22T03:19:32.023Z,5.94
2022-09-22T03:22:33.687Z,5.92
2022-09-22T03:25:35.640Z,5.92
2022-09-22T03:28:37.283Z,5.91
2022-09-22T03:31:38.853Z,5.90
2022-09-22T03:34:41.878Z,5.87
2022-09-22T03:37:43.537Z,5.85
2022-09-22T03:40:49.416Z,5.85
2022-09-22T03:43:51.207Z,5.84
2022-09-22T03:47:01.897Z,5.84
2022-09-22T03:50:05.501Z,5.87
2022-09-22T03:53:07.098Z,5.87
2022-09-22T03:56:12.140Z,5.90
2022-09-22T03:59:13.956Z,5.88
2022-09-22T04:02:17.312Z,5.83
2022-09-22T04:05:20.458Z,5.81
2022-09-22T04:08:22.194Z,5.82
2022-09-22T04:11:27.760Z,5.81
2022-09-22T04:14:30.038Z,5.80
2022-09-22T04:17:32.083Z,5.81
2022-09-22T04:20:36.114Z,5.84
2022-09-22T04:23:37.782Z,5.85
2022-09-22T04:26:51.631Z,5.87
2022-09-22T04:30:01.638Z,5.86
2022-09-22T04:33:05.280Z,5.82
2022-09-22T04:36:08.685Z,5.82
2022-09-22T04:39:10.622Z,5.83
2022-09-22T04:42:12.284Z,5.82
2022-09-22T04:45:18.217Z,5.80
2022-09-22T04:48:20.032Z,5.81
2022-09-22T04:51:23.140Z,5.80
2022-09-22T04:54:25.031Z,5.79
2022-09-22T04:57:26.985Z,5.77
2022-09-22T05:00:29.151Z,5.75
2022-09-22T05:03:30.889Z,5.73
2022-09-22T05:06:33.927Z,5.73
2022-09-22T05:09:35.739Z,5.72
2022-09-22T05:12:39.102Z,5.72
2022-09-22T05:15:40.881Z,5.75
2022-09-22T05:18:42.547Z,5.75
2022-09-22T05:21:45.555Z,5.70
2022-09-22T05:24:47.442Z,5.71
2022-09-22T05:27:57.512Z,5.71
2022-09-22T05:30:59.151Z,5.72
2022-09-22T05:34:00.643Z,5.73
2022-09-22T05:37:03.501Z,5.78
2022-09-22T05:40:07.140Z,5.79
2022-09-22T05:43:08.670Z,5.82
2022-09-22T05:46:10.322Z,5.86
2022-09-22T05:49:12.229Z,5.91
2022-09-22T05:52:15.550Z,5.92
2022-09-22T05:55:17.369Z,5.95
2022-09-22T05:58:18.897Z,5.99
2022-09-22T06:01:20.409Z,6.04
2022-09-22T06:04:24.380Z,6.12
2022-09-22T06:07:27.937Z,6.17
2022-09-22T06:10:33.977Z,6.24
2022-09-22T06:13:42.870Z,6.29
2022-09-22T06:16:44.577Z,6.34
2022-09-22T06:19:50.012Z,6.43
2022-09-22T06:22:54.095Z,6.53
2022-09-22T06:25:59.047Z,6.62
2022-09-22T06:29:00.709Z,6.69
2022-09-22T06:32:02.468Z,6.81
2022-09-22T06:35:04.326Z,6.89
2022-09-22T06:38:12.833Z,6.98
2022-09-22T06:41:14.537Z,6.99
2022-09-22T06:44:16.260Z,7.09
2022-09-22T06:47:17.875Z,7.14
2022-09-22T06:50:19.582Z,7.17
2022-09-22T06:53:25.583Z,7.20
2022-09-22T06:56:28.556Z,7.25
2022-09-22T06:59:30.031Z,7.30
2022-09-22T07:02:31.623Z,7.40
2022-09-22T07:05:33.559Z,7.50
2022-09-22T07:08:38.374Z,7.65
2022-09-22T07:11:40.562Z,7.79
2022-09-22T07:14:43.998Z,7.97
2022-09-22T07:17:45.782Z,8.02
2022-09-22T07:20:47.568Z,8.00
2022-09-22T07:23:53.582Z,8.00
2022-09-22T07:26:55.498Z,8.09
2022-09-22T07:30:00.390Z,8.31
2022-09-22T07:33:02.218Z,8.43
2022-09-22T07:36:04.940Z,8.40
2022-09-22T07:39:08.660Z,8.44
2022-09-22T07:42:10.270Z,8.66
2022-09-22T07:45:12.987Z,8.76
2022-09-22T07:48:33.452Z,8.77
2022-09-22T07:51:35.657Z,8.96
2022-09-22T07:54:40.190Z,8.97
2022-09-22T07:57:41.706Z,9.15
2022-09-22T08:00:43.147Z,9.35
2022-09-22T08:03:46.365Z,9.50
2022-09-22T08:06:48.815Z,9.58
2022-09-22T08:09:54.349Z,9.65
2022-09-22T08:12:57.824Z,9.66
2022-09-22T08:15:59.467Z,9.86
2022-09-22T08:19:02.447Z,9.88
2022-09-22T08:22:04.333Z,10.09
2022-09-22T08:25:07.978Z,10.17
2022-09-22T08:28:12.510Z,10.33
2022-09-22T08:31:15.365Z,10.34
2022-09-22T08:34:18.122Z,10.39
2022-09-22T08:37:20.555Z,10.46
2022-09-22T08:40:24.169Z,10.63
2022-09-22T08:43:25.802Z,10.71
2022-09-22T08:46:28.747Z,10.85
2022-09-22T08:49:50.979Z,10.89
2022-09-22T08:52:55.722Z,11.01
2022-09-22T08:56:03.297Z,11.01
2022-09-22T08:59:09.338Z,10.93
2022-09-22T09:02:29.832Z,10.95
2022-09-22T09:05:54.489Z,11.09
2022-09-22T09:09:06.503Z,11.12
2022-09-22T09:12:21.326Z,11.32
2022-09-22T09:15:30.679Z,11.24
2022-09-22T09:18:33.645Z,11.39
2022-09-22T09:21:38.089Z,11.37
2022-09-22T09:28:10.180Z,11.74
2022-09-22T09:31:15.312Z,11.72
2022-09-22T09:34:18.220Z,11.78
2022-09-22T09:37:20.673Z,12.00
2022-09-22T09:40:22.419Z,12.26
2022-09-22T09:43:28.019Z,12.42
2022-09-22T09:46:38.268Z,12.56
2022-09-22T09:49:39.798Z,12.60
2022-09-22T09:52:41.873Z,12.70
2022-09-22T09:55:43.364Z,12.90
2022-09-22T09:59:13.378Z,12.99
2022-09-22T10:02:15.685Z,13.01
2022-09-22T10:05:22.126Z,13.07
2022-09-22T10:08:24.590Z,13.24
2022-09-22T10:11:30.614Z,13.44
2022-09-22T10:14:34.447Z,13.60
2022-09-22T10:17:39.783Z,13.73
2022-09-22T10:20:41.411Z,13.82
2022-09-22T10:23:43.736Z,13.60
2022-09-22T10:26:55.159Z,13.69
2022-09-22T10:30:15.705Z,13.70
2022-09-22T10:33:21.636Z,13.59
2022-09-22T10:36:26.014Z,13.97
2022-09-22T10:39:32.921Z,14.04
2022-09-22T10:42:36.030Z,14.10
2022-09-22T10:45:42.565Z,14.08
2022-09-22T10:48:48.205Z,14.14
2022-09-22T10:51:57.410Z,14.24
2022-09-22T10:55:06.489Z,14.28
2022-09-22T10:58:22.981Z,14.01
2022-09-22T11:01:32.817Z,13.79
2022-09-22T11:04:41.731Z,14.19
2022-09-22T11:08:12.205Z,14.36
2022-09-22T11:11:38.856Z,14.27
2022-09-22T11:14:50.237Z,14.44
2022-09-22T11:17:58.645Z,14.62
2022-09-22T11:21:08.707Z,14.70
2022-09-22T11:24:26.444Z,14.64
2022-09-22T11:27:36.629Z,14.63
2022-09-22T11:30:40.893Z,14.75
2022-09-22T11:33:56.463Z,14.97
2022-09-22T11:37:22.640Z,15.12
2022-09-22T11:40:33.121Z,15.16
2022-09-22T11:43:44.735Z,15.27
2022-09-22T11:46:55.431Z,15.31
2022-09-22T11:50:14.295Z,15.35
2022-09-22T11:53:33.904Z,15.26
2022-09-22T11:56:38.654Z,15.12
2022-09-22T11:59:47.248Z,14.99
2022-09-22T12:02:54.959Z,14.80
2022-09-22T12:05:58.577Z,14.47
2022-09-22T12:09:03.051Z,14.29
2022-09-22T12:12:05.719Z,14.14
2022-09-22T12:15:09.748Z,14.02
2022-09-22T12:18:14.297Z,13.82
2022-09-22T12:21:23.030Z,13.80
2022-09-22T12:24:27.188Z,13.98
2022-09-22T12:27:30.059Z,14.24
2022-09-22T12:30:32.027Z,14.39
2022-09-22T12:33:35.155Z,14.60
2022-09-22T12:36:40.488Z,14.87
2022-09-22T12:39:44.692Z,14.97
2022-09-22T12:42:49.165Z,15.03
2022-09-22T12:45:51.978Z,15.41
2022-09-22T12:48:54.296Z,15.62
2022-09-22T12:51:55.978Z,15.70
2022-09-22T12:55:12.329Z,15.90
2022-09-22T12:58:32.694Z,15.96
2022-09-22T13:01:35.045Z,15.94
2022-09-22T13:04:37.329Z,15.93
2022-09-22T13:07:39.708Z,16.08
2022-09-22T13:10:49.882Z,16.12
2022-09-22T13:13:52.134Z,16.11
2022-09-22T13:16:53.591Z,16.08
2022-09-22T13:19:58.123Z,15.89
2022-09-22T13:23:12.102Z,15.61
2022-09-22T13:26:16.506Z,15.41
2022-09-22T13:29:19.273Z,15.29
2022-09-22T13:32:27.059Z,15.17
2022-09-22T13:35:30.288Z,15.24
2022-09-22T13:38:34.238Z,15.72
2022-09-22T13:41:41.242Z,15.94
2022-09-22T13:44:44.492Z,15.72
2022-09-22T13:47:46.989Z,15.60
2022-09-22T13:50:50.398Z,15.81
2022-09-22T13:53:53.596Z,15.95
2022-09-22T13:56:57.703Z,16.01
2022-09-22T14:00:03.620Z,16.14
2022-09-22T14:03:05.244Z,16.20
2022-09-22T14:06:10.212Z,16.21
2022-09-22T14:09:11.862Z,16.16
2022-09-22T14:12:15.617Z,16.12
2022-09-22T14:15:39.362Z,15.98
2022-09-22T14:18:42.920Z,16.14
2022-09-22T14:21:49.206Z,16.22
2022-09-22T14:24:52.293Z,16.19
2022-09-22T14:27:59.379Z,16.23
2022-09-22T14:31:02.047Z,16.22
2022-09-22T14:34:03.733Z,16.25
2022-09-22T14:37:13.795Z,16.25
2022-09-22T14:40:16.290Z,16.03
2022-09-22T14:43:23.915Z,15.97
2022-09-22T14:46:33.827Z,15.85
2022-09-22T14:49:38.191Z,15.89
2022-09-22T14:52:41.474Z,15.92
2022-09-22T14:55:45.105Z,15.97
2022-09-22T14:58:51.269Z,15.93
2022-09-22T15:02:12.234Z,15.99
2022-09-22T15:05:27.637Z,15.94
2022-09-22T15:08:32.156Z,15.91
2022-09-22T15:11:48.240Z,15.87
2022-09-22T15:14:58.476Z,15.84
2022-09-22T15:18:19.439Z,15.81
2022-09-22T15:21:29.191Z,15.83
2022-09-22T15:24:30.759Z,15.81
2022-09-22T15:27:32.368Z,15.72
2022-09-22T15:30:36.434Z,15.59
2022-09-22T15:33:37.861Z,15.49
2022-09-22T15:36:44.347Z,15.52
2022-09-22T15:39:46.097Z,15.55
2022-09-22T15:43:09.063Z,15.48
2022-09-22T15:46:23.981Z,15.41
2022-09-22T15:49:29.499Z,15.33
2022-09-22T15:52:31.009Z,15.30
2022-09-22T15:55:34.744Z,15.20
2022-09-22T15:58:39.370Z,15.16
2022-09-22T16:01:42.276Z,15.14
2022-09-22T16:04:44.374Z,15.08
2022-09-22T16:07:48.546Z,15.00
2022-09-22T16:10:50.282Z,14.92
2022-09-22T16:13:51.951Z,14.82
2022-09-22T16:16:55.062Z,14.77
2022-09-22T16:19:58.620Z,14.67
2022-09-22T16:23:02.031Z,14.58
2022-09-22T16:26:04.021Z,14.50
2022-09-22T16:29:07.013Z,14.45
2022-09-22T16:32:11.498Z,14.34
2022-09-22T16:35:13.823Z,14.24
2022-09-22T16:38:15.798Z,14.17
2022-09-22T16:41:21.142Z,14.08
2022-09-22T16:44:22.657Z,13.97
2022-09-22T16:47:25.751Z,13.85
2022-09-22T16:50:28.043Z,13.73
2022-09-22T16:53:29.595Z,13.65
2022-09-22T16:56:31.856Z,13.54
2022-09-22T16:59:33.511Z,13.44
2022-09-22T17:02:36.614Z,13.36
2022-09-22T17:05:39.870Z,13.25
2022-09-22T17:08:45.939Z,13.15
2022-09-22T17:11:53.689Z,13.06
2022-09-22T17:14:55.638Z,12.98
2022-09-22T17:17:58.625Z,12.91
2022-09-22T17:21:00.491Z,12.84
2022-09-22T17:24:02.756Z,12.76
2022-09-22T17:27:05.758Z,12.70
2022-09-22T17:30:08.055Z,12.62
2022-09-22T17:33:11.171Z,12.52
2022-09-22T17:36:13.783Z,12.44
2022-09-22T17:39:15.423Z,12.37
2022-09-22T17:42:16.894Z,12.26
2022-09-22T17:45:18.888Z,12.17
2022-09-22T17:48:40.104Z,12.11
2022-09-22T17:52:01.074Z,12.05
2022-09-22T17:55:07.339Z,12.02
2022-09-22T17:58:10.045Z,11.97
2022-09-22T18:01:12.086Z,11.90
2022-09-22T18:04:15.098Z,11.84
2022-09-22T18:07:17.870Z,11.78
2022-09-22T18:10:20.019Z,11.70
2022-09-22T18:13:21.704Z,11.68
2022-09-22T18:16:29.332Z,11.60
2022-09-22T18:19:35.098Z,11.54
2022-09-22T18:22:36.884Z,11.50
2022-09-22T18:25:38.339Z,11.50
2022-09-22T18:28:40.647Z,11.46
2022-09-22T18:31:42.637Z,11.39
2022-09-22T18:34:48.716Z,11.32
2022-09-22T18:37:51.713Z,11.22
2022-09-22T18:40:54.540Z,11.21
2022-09-22T18:43:56.280Z,11.23
2022-09-22T18:47:03.453Z,11.20
2022-09-22T18:50:07.081Z,11.12
2022-09-22T18:53:08.528Z,11.10
2022-09-22T18:56:10.725Z,11.03
2022-09-22T18:59:13.029Z,10.99
2022-09-22T19:02:14.673Z,10.94
2022-09-22T19:05:17.978Z,10.91
2022-09-22T19:08:23.175Z,10.88
2022-09-22T19:11:24.766Z,10.83
2022-09-22T19:14:26.325Z,10.81
2022-09-22T19:17:29.793Z,10.76
2022-09-22T19:20:33.031Z,10.69
2022-09-22T19:23:37.329Z,10.65
2022-09-22T19:26:42.827Z,10.64
2022-09-22T19:29:44.328Z,10.61
2022-09-22T19:32:46.189Z,10.61
2022-09-22T19:35:49.324Z,10.60
2022-09-22T19:38:50.920Z,10.62
2022-09-22T19:41:52.642Z,10.60
2022-09-22T19:44:54.192Z,10.55
2022-09-22T19:47:58.735Z,10.49
2022-09-22T19:51:03.366Z,10.45
2022-09-22T19:54:05.239Z,10.42
2022-09-22T19:57:06.918Z,10.38
2022-09-22T20:00:09.731Z,10.39
2022-09-22T20:03:11.209Z,10.34
2022-09-22T20:06:14.873Z,10.30
2022-09-22T20:09:16.751Z,10.24
2022-09-22T20:12:21.210Z,10.14
2022-09-22T20:15:22.746Z,10.08
2022-09-22T20:18:24.285Z,10.00
2022-09-22T20:21:27.894Z,9.92
2022-09-22T20:24:29.559Z,9.86
2022-09-22T20:27:32.380Z,9.86
2022-09-22T20:30:33.979Z,9.87
2022-09-22T20:33:35.504Z,9.87
2022-09-22T20:36:38.413Z,9.86
2022-09-22T20:39:40.159Z,9.85
2022-09-22T20:42:41.855Z,9.83
2022-09-22T20:45:43.901Z,9.80
2022-09-22T20:48:45.890Z,9.78
2022-09-22T20:51:48.909Z,9.74
2022-09-22T20:54:50.453Z,9.68
2022-09-22T20:57:52.341Z,9.61
2022-09-22T21:00:55.715Z,9.56
2022-09-22T21:03:57.751Z,9.55
2022-09-22T21:07:00.742Z,9.52
2022-09-22T21:10:40.801Z,9.52
2022-09-22T21:13:42.615Z,9.50
2022-09-22T21:16:47.650Z,9.46
2022-09-22T21:19:49.300Z,9.45
2022-09-22T21:22:52.768Z,9.46
2022-09-22T21:25:57.920Z,9.49
2022-09-22T21:28:59.634Z,9.47
2022-09-22T21:32:01.897Z,9.46
2022-09-22T21:35:05.957Z,9.43
2022-09-22T21:38:09.091Z,9.40
2022-09-22T21:41:13.990Z,9.37
2022-09-22T21:44:15.851Z,9.31
2022-09-22T21:47:18.576Z,9.30
2022-09-22T21:50:20.463Z,9.30
2022-09-22T21:53:23.441Z,9.28
2022-09-22T21:56:25.801Z,9.24
2022-09-22T21:59:27.399Z,9.21
2022-09-22T22:02:51.147Z,9.18
2022-09-22T22:05:58.656Z,9.25
2022-09-22T22:09:04.518Z,9.35
2022-09-22T22:12:06.059Z,9.42
2022-09-22T22:15:08.226Z,9.45
2022-09-22T22:18:09.727Z,9.44
2022-09-22T22:21:12.340Z,9.42
2022-09-22T22:24:19.467Z,9.37
2022-09-22T22:27:22.401Z,9.33
2022-09-22T22:30:24.223Z,9.32
2022-09-22T22:33:25.890Z,9.35
2022-09-22T22:36:27.440Z,9.40
2022-09-22T22:39:30.829Z,9.46
2022-09-22T22:42:34.770Z,9.48
2022-09-22T22:45:36.326Z,9.52
2022-09-22T22:48:37.856Z,9.53
2022-09-22T22:51:42.860Z,9.61
2022-09-22T22:54:45.884Z,9.65
2022-09-22T22:57:47.504Z,9.72
2022-09-22T23:00:49.029Z,9.79
2022-09-22T23:03:52.087Z,9.78
2022-09-22T23:06:53.565Z,9.80
2022-09-22T23:10:06.373Z,9.81
2022-09-22T23:13:08.228Z,9.78
2022-09-22T23:16:11.259Z,9.81
2022-09-22T23:19:14.419Z,9.84
2022-09-22T23:22:15.949Z,9.81
2022-09-22T23:25:19.121Z,9.81
2022-09-22T23:28:23.391Z,9.82
2022-09-22T23:31:25.208Z,9.79
2022-09-22T23:34:27.492Z,9.78
2022-09-22T23:37:28.977Z,9.73
2022-09-22T23:40:34.610Z,9.74
2022-09-22T23:43:36.510Z,9.76
2022-09-22T23:46:38.432Z,9.74
2022-09-22T23:49:40.444Z,9.76
2022-09-22T23:52:41.927Z,9.77
2022-09-22T23:55:45.150Z,9.73
2022-09-22T23:58:46.936Z,9.73
